Terminal Aerodrome Forecast
Issued by NWS Sterling, VA

Current Version | Previous Version | Text Only | Print | Product List | Glossary Off
Versions: 1 2 3 4 5 6 7 8 9 10 11 12 13

851
FTUS41 KLWX 242320
TAFMRB
TAF
KMRB 242320Z 2500/2524 16006KT P6SM FEW200
     FM250600 VRB04KT P6SM SCT050
     FM251600 21007KT P6SM BKN050=

USA.gov is the U.S. government's official web portal to all federal, state and local government web resources and services.